Time;durP1;ratioP1;P1;durP2;ratioP2;P2;SDS_P1;SDS_P2;PMS_P1;PMS_P2;Temp;Humidity;BMP_temperature;BMP_pressure;BME280_temperature;BME280_humidity;BME280_pressure;Samples;Min_cycle;Max_cycle;Signal;HPM_P1;HPM_P2
2023/03/24 00:00:19;;;;;;;4.50;2.57;;;13.70;99.90;;;;;;6215298;23;20490;-83
2023/03/24 00:02:47;;;;;;;2.90;2.30;;;13.70;99.90;;;;;;6215277;23;20419;-83
2023/03/24 00:05:18;;;;;;;2.00;1.77;;;13.60;99.90;;;;;;6243429;23;20379;-83
2023/03/24 00:07:44;;;;;;;3.20;2.30;;;13.70;99.90;;;;;;6215997;23;20415;-83
2023/03/24 00:10:13;;;;;;;2.47;1.90;;;13.80;99.90;;;;;;6241588;23;20995;-83
2023/03/24 00:12:41;;;;;;;2.60;2.40;;;13.80;99.90;;;;;;6241896;23;20407;-82
2023/03/24 00:15:10;;;;;;;3.23;1.77;;;13.80;99.90;;;;;;6233458;23;20811;-83
2023/03/24 00:17:38;;;;;;;10.50;2.20;;;13.80;99.90;;;;;;6211273;23;20443;-83
2023/03/24 00:20:06;;;;;;;4.30;2.33;;;13.70;99.90;;;;;;6239891;23;20402;-83
2023/03/24 00:22:33;;;;;;;2.27;2.07;;;13.60;99.90;;;;;;6238076;23;20367;-83
2023/03/24 00:24:59;;;;;;;2.30;1.63;;;13.70;99.90;;;;;;6236198;23;20372;-83
2023/03/24 00:27:24;;;;;;;4.40;2.83;;;13.70;99.90;;;;;;6236612;23;20367;-83
2023/03/24 00:29:49;;;;;;;2.77;2.17;;;13.50;99.90;;;;;;6238408;23;20420;-83
2023/03/24 00:32:16;;;;;;;4.23;2.60;;;13.40;99.90;;;;;;6212442;23;20603;-83
2023/03/24 00:34:42;;;;;;;7.90;2.63;;;13.40;99.90;;;;;;6236953;23;20507;-83
2023/03/24 00:37:07;;;;;;;5.07;1.93;;;13.40;99.90;;;;;;6235583;23;20466;-83
2023/03/24 00:39:33;;;;;;;3.53;2.20;;;13.50;99.90;;;;;;6237868;23;20681;-82
2023/03/24 00:42:00;;;;;;;3.37;2.30;;;13.50;99.90;;;;;;6239502;23;20153;-82
2023/03/24 00:44:26;;;;;;;3.63;2.80;;;13.60;99.90;;;;;;6237924;23;20244;-82
2023/03/24 00:46:55;;;;;;;4.97;2.63;;;13.70;99.90;;;;;;6237011;23;20419;-83
2023/03/24 00:49:46;;;;;;;3.60;2.90;;;13.70;99.90;;;;;;6240238;23;20766;-83
2023/03/24 00:52:16;;;;;;;3.00;2.40;;;13.70;99.90;;;;;;6243357;23;20359;-81
2023/03/24 00:54:44;;;;;;;2.30;2.10;;;13.70;99.90;;;;;;6244930;23;20409;-83
2023/03/24 00:57:11;;;;;;;4.27;2.20;;;13.80;99.90;;;;;;6237768;23;20781;-83
2023/03/24 00:59:41;;;;;;;3.27;2.63;;;13.80;99.90;;;;;;6230659;23;20395;-83
2023/03/24 01:02:10;;;;;;;4.60;2.13;;;13.80;99.90;;;;;;6239922;23;20367;-83
2023/03/24 01:04:38;;;;;;;3.10;2.47;;;13.80;99.90;;;;;;6240728;23;20786;-82
2023/03/24 01:07:04;;;;;;;2.73;2.10;;;13.70;99.90;;;;;;6248829;23;20371;-83
2023/03/24 01:09:30;;;;;;;7.53;3.20;;;13.70;99.90;;;;;;6253801;23;20443;-83
2023/03/24 01:11:56;;;;;;;2.88;2.50;;;13.60;99.90;;;;;;6240929;23;20770;-82
2023/03/24 01:14:21;;;;;;;4.70;2.33;;;13.60;99.90;;;;;;6244958;23;20156;-83
2023/03/24 01:16:47;;;;;;;2.97;2.50;;;13.60;99.90;;;;;;6240355;23;20192;-82
2023/03/24 01:19:13;;;;;;;3.50;2.30;;;13.50;99.90;;;;;;6241974;23;20179;-82
2023/03/24 01:21:38;;;;;;;4.53;2.43;;;13.40;99.90;;;;;;6240410;23;20221;-83
2023/03/24 01:24:04;;;;;;;3.97;3.00;;;13.50;99.90;;;;;;6240530;23;20371;-82
2023/03/24 01:26:30;;;;;;;3.30;2.10;;;13.50;99.90;;;;;;6237093;23;20231;-84
2023/03/24 01:28:56;;;;;;;5.97;2.80;;;13.50;99.90;;;;;;6236560;23;20426;-83
2023/03/24 01:31:22;;;;;;;5.70;2.37;;;13.60;99.90;;;;;;6231616;23;20810;-84
2023/03/24 01:33:47;;;;;;;3.67;2.40;;;13.60;99.90;;;;;;6232764;23;20395;-84
2023/03/24 01:36:13;;;;;;;5.80;2.30;;;13.60;99.90;;;;;;6207582;23;20168;-85
2023/03/24 01:38:38;;;;;;;2.93;1.60;;;13.70;99.90;;;;;;6238518;23;20191;-85
2023/03/24 01:41:06;;;;;;;3.40;2.33;;;13.70;99.90;;;;;;6239198;23;20424;-83
2023/03/24 01:43:33;;;;;;;3.70;2.30;;;13.80;99.90;;;;;;6213769;23;20156;-83
2023/03/24 01:46:16;;;;;;;4.03;2.50;;;13.70;99.90;;;;;;6235492;23;20372;-83
2023/03/24 01:48:41;;;;;;;4.40;2.30;;;13.80;99.90;;;;;;6239707;23;20359;-84
2023/03/24 01:51:19;;;;;;;4.40;2.70;;;13.80;99.90;;;;;;6208878;23;20421;-83
2023/03/24 01:53:57;;;;;;;4.77;2.87;;;13.80;99.90;;;;;;6209150;23;20913;-83
2023/03/24 01:56:24;;;;;;;4.50;2.00;;;13.70;99.90;;;;;;6208887;23;20395;-83
2023/03/24 01:58:58;;;;;;;4.87;2.17;;;13.60;99.90;;;;;;6210160;23;20423;-82
2023/03/24 02:01:29;;;;;;;3.67;2.50;;;13.60;99.90;;;;;;6234467;23;20806;-83
2023/03/24 02:03:57;;;;;;;2.40;1.77;;;13.50;99.90;;;;;;6231980;23;20367;-83
2023/03/24 02:06:24;;;;;;;5.00;2.67;;;13.50;99.90;;;;;;6206578;23;20383;-83
2023/03/24 02:08:58;;;;;;;2.67;2.47;;;13.50;99.90;;;;;;6210042;23;20386;-82
2023/03/24 02:11:27;;;;;;;2.50;2.03;;;13.50;99.90;;;;;;6229238;23;20399;-82
2023/03/24 02:13:53;;;;;;;4.13;2.30;;;13.60;99.90;;;;;;6207538;23;20390;-84
2023/03/24 02:16:39;;;;;;;2.90;1.93;;;13.60;99.90;;;;;;6209361;23;20368;-83
2023/03/24 02:19:51;;;;;;;2.37;2.00;;;13.50;99.90;;;;;;6218271;23;20183;-83
2023/03/24 02:22:19;;;;;;;1.83;1.60;;;13.70;99.90;;;;;;6238299;23;20538;-83
2023/03/24 02:25:05;;;;;;;5.23;2.70;;;13.70;99.90;;;;;;6236231;23;20425;-83
2023/03/24 02:27:53;;;;;;;4.60;2.83;;;13.70;99.90;;;;;;6236231;23;20360;-83
2023/03/24 02:30:30;;;;;;;2.38;2.05;;;13.60;99.90;;;;;;6210580;23;20406;-82
2023/03/24 02:33:12;;;;;;;3.33;2.27;;;13.70;99.90;;;;;;6237157;23;20267;-83
2023/03/24 02:36:14;;;;;;;5.30;2.30;;;13.70;99.90;;;;;;6232745;23;20426;-85
2023/03/24 02:39:10;;;;;;;2.03;1.70;;;13.70;99.90;;;;;;6208379;23;20874;-85
2023/03/24 02:42:01;;;;;;;4.00;2.50;;;13.70;99.90;;;;;;6235883;23;20452;-83
2023/03/24 02:44:38;;;;;;;1.67;1.57;;;13.80;99.90;;;;;;6209728;23;20375;-84
2023/03/24 02:47:17;;;;;;;3.43;1.53;;;13.80;99.90;;;;;;6239103;23;20362;-85
2023/03/24 02:50:11;;;;;;;4.23;2.50;;;13.90;99.90;;;;;;6211583;23;20686;-83
2023/03/24 02:52:53;;;;;;;3.27;2.20;;;13.80;99.90;;;;;;6237275;23;20355;-85
2023/03/24 02:55:30;;;;;;;2.77;1.67;;;13.80;99.90;;;;;;6239241;23;20367;-85
2023/03/24 02:58:12;;;;;;;2.53;2.00;;;13.80;99.90;;;;;;6242088;23;20399;-84
2023/03/24 03:00:47;;;;;;;3.47;1.90;;;13.90;99.90;;;;;;6236947;23;20449;-85
2023/03/24 03:03:22;;;;;;;2.67;2.30;;;13.90;99.90;;;;;;6239280;23;20369;-85
2023/03/24 03:05:59;;;;;;;2.57;2.20;;;13.90;99.90;;;;;;6251056;23;20359;-85
2023/03/24 03:08:28;;;;;;;3.83;2.10;;;13.80;99.90;;;;;;6213539;23;20371;-84
2023/03/24 03:10:56;;;;;;;4.90;2.23;;;13.80;99.90;;;;;;6212238;23;20715;-84
2023/03/24 03:13:53;;;;;;;3.03;2.23;;;13.80;99.90;;;;;;6210490;23;20383;-84
2023/03/24 03:16:24;;;;;;;7.00;2.53;;;13.80;99.90;;;;;;6210172;23;20382;-85
2023/03/24 03:19:00;;;;;;;2.60;1.63;;;13.80;99.90;;;;;;6213915;23;20422;-85
2023/03/24 03:21:31;;;;;;;3.77;2.27;;;13.90;99.90;;;;;;6240790;23;20402;-85
2023/03/24 03:24:01;;;;;;;3.60;1.90;;;13.90;99.90;;;;;;6207698;23;20366;-85
2023/03/24 03:26:31;;;;;;;3.97;1.83;;;13.90;99.90;;;;;;6208651;23;20415;-85
2023/03/24 03:29:08;;;;;;;2.83;1.80;;;13.90;99.90;;;;;;6211696;23;20372;-85
2023/03/24 03:31:40;;;;;;;2.73;1.80;;;14.00;99.90;;;;;;6216536;23;20367;-85
2023/03/24 03:34:33;;;;;;;2.77;1.87;;;14.10;99.90;;;;;;6233195;23;20399;-83
2023/03/24 03:37:36;;;;;;;4.13;2.30;;;14.10;99.90;;;;;;6239372;23;20360;-84
2023/03/24 03:40:34;;;;;;;3.77;1.80;;;14.20;99.90;;;;;;6235423;23;20482;-85
2023/03/24 03:42:59;;;;;;;3.60;2.50;;;14.20;99.90;;;;;;6240492;22;20379;-85
2023/03/24 03:45:25;;;;;;;3.57;1.80;;;14.20;99.90;;;;;;6240225;23;20360;-85
2023/03/24 03:47:51;;;;;;;3.33;2.03;;;14.20;99.90;;;;;;6236092;23;20210;-85
2023/03/24 03:50:16;;;;;;;3.20;2.17;;;14.10;99.90;;;;;;6236253;23;20176;-85
2023/03/24 03:52:43;;;;;;;2.70;1.97;;;14.10;99.90;;;;;;6236792;23;20156;-85
2023/03/24 03:55:10;;;;;;;4.33;2.13;;;14.10;99.90;;;;;;6238897;23;20178;-85
2023/03/24 03:57:36;;;;;;;2.90;2.10;;;14.10;99.90;;;;;;6236824;23;21264;-85
2023/03/24 04:00:10;;;;;;;3.47;1.87;;;14.10;99.90;;;;;;6231061;23;20490;-86
2023/03/24 04:03:21;;;;;;;3.47;1.60;;;14.10;99.90;;;;;;6233169;23;20499;-85
2023/03/24 04:06:00;;;;;;;2.27;1.73;;;14.10;99.90;;;;;;6236221;23;20407;-84
2023/03/24 04:08:46;;;;;;;2.83;2.07;;;14.20;99.90;;;;;;6239743;23;20398;-84
2023/03/24 04:11:42;;;;;;;3.13;2.50;;;14.30;99.90;;;;;;6232358;23;20707;-84
2023/03/24 04:14:18;;;;;;;6.00;1.80;;;14.40;99.90;;;;;;6237459;22;20420;-85
2023/03/24 04:17:21;;;;;;;4.10;2.03;;;14.40;99.90;;;;;;6239597;23;20386;-85
2023/03/24 04:20:04;;;;;;;1.13;1.00;;;14.20;99.90;;;;;;6239288;23;20418;-84
2023/03/24 04:22:45;;;;;;;2.07;1.87;;;14.30;99.90;;;;;;6239410;23;20340;-84
2023/03/24 04:25:41;;;;;;;2.57;2.37;;;14.30;99.90;;;;;;6238823;23;20830;-84
2023/03/24 04:28:25;;;;;;;3.43;2.00;;;14.30;99.90;;;;;;6240176;23;20384;-84
2023/03/24 04:31:22;;;;;;;3.30;2.17;;;14.20;99.90;;;;;;6234974;23;20912;-84
2023/03/24 04:34:15;;;;;;;2.80;1.97;;;14.20;99.90;;;;;;6236856;22;20788;-83
2023/03/24 04:36:49;;;;;;;2.37;1.63;;;14.20;99.90;;;;;;6199331;23;20633;-85
2023/03/24 04:39:24;;;;;;;1.50;1.40;;;14.10;99.90;;;;;;6237551;23;20495;-84
2023/03/24 04:41:51;;;;;;;2.53;1.93;;;14.20;99.90;;;;;;6219136;23;20351;-84
2023/03/24 04:44:20;;;;;;;3.33;1.90;;;14.20;99.90;;;;;;6241300;23;20371;-84
2023/03/24 04:46:50;;;;;;;2.17;1.50;;;14.20;99.90;;;;;;6214977;23;20392;-84
2023/03/24 04:49:18;;;;;;;2.10;1.90;;;14.20;99.90;;;;;;6211423;23;20414;-84
2023/03/24 04:51:44;;;;;;;4.30;2.17;;;14.10;99.90;;;;;;6211124;23;20443;-83
2023/03/24 04:54:10;;;;;;;2.10;1.60;;;14.10;99.90;;;;;;6239158;23;20379;-84
2023/03/24 04:56:49;;;;;;;2.10;1.90;;;14.10;99.90;;;;;;6245483;23;20360;-83
2023/03/24 04:59:15;;;;;;;4.80;2.30;;;14.10;99.90;;;;;;6218449;23;20178;-84
2023/03/24 05:01:48;;;;;;;4.40;2.20;;;14.10;99.90;;;;;;6244951;23;20367;-84
2023/03/24 05:04:19;;;;;;;2.80;2.00;;;13.90;99.90;;;;;;6213847;23;20145;-84
2023/03/24 05:06:45;;;;;;;2.13;1.90;;;13.90;99.90;;;;;;6217562;23;20384;-83
2023/03/24 05:09:20;;;;;;;2.50;2.10;;;13.80;99.90;;;;;;6210708;23;20383;-83
2023/03/24 05:11:46;;;;;;;4.10;2.60;;;13.80;99.90;;;;;;6238865;23;20355;-84
2023/03/24 05:14:11;;;;;;;3.17;2.40;;;13.70;99.90;;;;;;6211365;23;20755;-83
2023/03/24 05:16:37;;;;;;;4.50;2.80;;;13.50;99.90;;;;;;6214547;23;20399;-83
2023/03/24 05:19:03;;;;;;;3.70;3.27;;;13.20;99.90;;;;;;6241399;23;20172;-84
2023/03/24 05:21:29;;;;;;;4.95;4.13;;;13.10;99.90;;;;;;6225740;23;20183;-82
2023/03/24 05:23:55;;;;;;;4.50;3.37;;;13.20;99.90;;;;;;6227391;23;20583;-81
2023/03/24 05:26:21;;;;;;;6.43;3.03;;;12.70;99.90;;;;;;6249390;23;20376;-83
2023/03/24 05:28:46;;;;;;;4.77;3.27;;;12.60;99.90;;;;;;6214871;23;20867;-82
2023/03/24 05:31:12;;;;;;;8.93;3.70;;;12.50;99.90;;;;;;6239601;23;20562;-83
2023/03/24 05:33:38;;;;;;;6.17;3.63;;;12.50;99.90;;;;;;6227200;23;20330;-82
2023/03/24 05:36:04;;;;;;;5.50;3.30;;;12.40;99.90;;;;;;6244885;23;20406;-83
2023/03/24 05:38:29;;;;;;;4.50;4.10;;;12.40;99.90;;;;;;6241979;23;20244;-82
2023/03/24 05:40:58;;;;;;;2.70;2.40;;;12.30;99.90;;;;;;6240143;23;20391;-82
2023/03/24 05:43:24;;;;;;;4.22;3.00;;;12.30;99.90;;;;;;6235633;23;20216;-83
2023/03/24 05:45:49;;;;;;;3.87;2.70;;;12.30;99.90;;;;;;6242194;23;20141;-82
2023/03/24 05:48:15;;;;;;;4.43;3.23;;;12.20;99.90;;;;;;6239498;23;20168;-81
2023/03/24 05:50:41;;;;;;;4.20;3.30;;;12.20;99.90;;;;;;6244283;23;20870;-83
2023/03/24 05:53:06;;;;;;;3.43;2.73;;;12.20;99.90;;;;;;6244500;23;20157;-84
2023/03/24 05:55:32;;;;;;;4.20;3.13;;;12.20;99.90;;;;;;6247899;23;20218;-82
2023/03/24 05:58:00;;;;;;;3.70;2.50;;;12.30;99.90;;;;;;6246454;23;20434;-83
2023/03/24 06:00:30;;;;;;;6.03;3.20;;;12.20;99.90;;;;;;6244730;23;20171;-84
2023/03/24 06:02:57;;;;;;;5.22;3.13;;;12.20;99.90;;;;;;6247428;23;20375;-84
2023/03/24 06:05:23;;;;;;;4.57;3.35;;;12.20;99.90;;;;;;6238021;23;20224;-83
2023/03/24 06:07:48;;;;;;;7.88;3.08;;;12.20;99.90;;;;;;6241641;23;20149;-85
2023/03/24 06:10:17;;;;;;;6.90;3.10;;;12.20;99.90;;;;;;6247064;23;20187;-84
2023/03/24 06:12:43;;;;;;;4.55;3.33;;;12.20;99.90;;;;;;6246410;23;20380;-85
2023/03/24 06:15:10;;;;;;;4.05;3.15;;;12.20;99.90;;;;;;6242684;23;20207;-84
2023/03/24 06:17:36;;;;;;;4.43;3.40;;;12.20;99.90;;;;;;6246460;23;20235;-84
2023/03/24 06:20:03;;;;;;;4.60;3.50;;;12.20;99.90;;;;;;6245333;23;20165;-84
2023/03/24 06:22:31;;;;;;;2.97;2.67;;;12.20;99.90;;;;;;6243962;23;20379;-84
2023/03/24 06:24:57;;;;;;;4.78;3.55;;;12.20;99.90;;;;;;6242978;23;20159;-84
2023/03/24 06:27:32;;;;;;;4.75;3.42;;;12.20;99.90;;;;;;6244869;23;20145;-84
2023/03/24 06:29:58;;;;;;;5.82;3.20;;;12.30;99.90;;;;;;6243506;23;20175;-84
2023/03/24 06:32:25;;;;;;;5.87;3.53;;;12.40;99.90;;;;;;6250670;23;20141;-85
2023/03/24 06:34:50;;;;;;;5.13;3.13;;;12.50;99.90;;;;;;6218992;23;20371;-86
2023/03/24 06:37:16;;;;;;;5.10;3.50;;;12.50;99.90;;;;;;6218415;23;20175;-84
2023/03/24 06:39:42;;;;;;;4.60;3.73;;;12.60;99.90;;;;;;6209650;23;20177;-84
2023/03/24 06:42:08;;;;;;;8.20;3.10;;;;;;;;;;6216066;23;20145;-85
2023/03/24 06:44:33;;;;;;;13.20;7.73;;;12.60;99.90;;;;;;6237845;23;20145;-84
2023/03/24 06:46:59;;;;;;;7.43;6.23;;;12.70;99.90;;;;;;6211022;23;20448;-84
2023/03/24 06:49:24;;;;;;;14.37;7.10;;;12.80;99.90;;;;;;6223238;22;20167;-84
2023/03/24 06:51:50;;;;;;;5.30;3.83;;;12.90;99.90;;;;;;6242071;23;20153;-84
2023/03/24 06:54:16;;;;;;;5.23;3.93;;;12.90;99.90;;;;;;6241914;23;20168;-84
2023/03/24 06:56:42;;;;;;;4.50;3.90;;;12.80;99.90;;;;;;6215944;23;20145;-84
2023/03/24 06:59:08;;;;;;;7.20;4.00;;;12.80;99.90;;;;;;6242043;23;20721;-85
2023/03/24 07:01:34;;;;;;;7.03;4.10;;;12.70;99.90;;;;;;6236769;23;20368;-84
2023/03/24 07:04:00;;;;;;;12.23;3.58;;;12.90;99.90;;;;;;6215409;23;20179;-84
2023/03/24 07:06:26;;;;;;;7.07;4.40;;;12.80;99.90;;;;;;6218904;23;20346;-84
2023/03/24 07:08:51;;;;;;;8.07;4.20;;;12.80;99.90;;;;;;6215936;23;20159;-84
2023/03/24 07:11:17;;;;;;;5.27;3.70;;;12.80;99.90;;;;;;6214298;23;20263;-84
2023/03/24 07:13:43;;;;;;;6.40;3.70;;;12.90;99.90;;;;;;6214188;23;20152;-84
2023/03/24 07:16:08;;;;;;;5.17;3.60;;;12.90;99.90;;;;;;6213381;23;20488;-84
2023/03/24 07:18:34;;;;;;;4.17;3.77;;;12.70;99.90;;;;;;6238991;23;20183;-84
2023/03/24 07:20:59;;;;;;;4.30;3.67;;;12.80;99.90;;;;;;6234431;23;20943;-85
2023/03/24 07:23:26;;;;;;;7.40;4.07;;;12.70;99.90;;;;;;6211631;23;20246;-85
2023/03/24 07:25:52;;;;;;;4.20;3.78;;;12.70;99.90;;;;;;6208571;23;20554;-84
2023/03/24 07:28:18;;;;;;;5.57;3.17;;;12.60;99.90;;;;;;6238076;23;20140;-84
2023/03/24 07:30:44;;;;;;;4.27;3.30;;;12.60;99.90;;;;;;6238893;23;20537;-85
2023/03/24 07:33:11;;;;;;;3.57;2.73;;;12.60;99.90;;;;;;6213398;23;20437;-84
2023/03/24 07:35:38;;;;;;;2.60;2.00;;;12.50;99.90;;;;;;6236032;23;20386;-84
2023/03/24 07:38:04;;;;;;;5.43;2.92;;;12.50;99.90;;;;;;6238439;23;20175;-85
2023/03/24 07:40:29;;;;;;;6.55;3.08;;;12.50;99.90;;;;;;6247651;23;20164;-84
2023/03/24 07:42:59;;;;;;;7.23;3.70;;;12.40;99.90;;;;;;6250801;23;20153;-83
2023/03/24 07:45:26;;;;;;;10.25;3.08;;;12.40;99.90;;;;;;6241801;23;20376;-85
2023/03/24 07:47:51;;;;;;;4.32;2.83;;;12.40;99.90;;;;;;6240342;23;20726;-85
2023/03/24 07:50:17;;;;;;;2.30;2.10;;;12.50;99.90;;;;;;6241261;23;20183;-85
2023/03/24 07:52:48;;;;;;;3.67;2.90;;;12.50;99.90;;;;;;6243907;23;20180;-84
2023/03/24 07:55:14;;;;;;;6.00;2.72;;;12.40;99.90;;;;;;6245785;23;20149;-85
2023/03/24 07:57:42;;;;;;;3.55;3.00;;;12.50;99.90;;;;;;6245504;23;20624;-85
2023/03/24 08:00:18;;;;;;;7.28;4.80;;;12.50;99.90;;;;;;6238547;23;20183;-84
2023/03/24 08:02:48;;;;;;;8.55;4.82;;;12.50;99.90;;;;;;6242543;23;20147;-84
2023/03/24 08:05:14;;;;;;;5.50;4.07;;;12.50;99.90;;;;;;6241841;23;20896;-84
2023/03/24 08:07:41;;;;;;;4.75;3.42;;;12.60;99.90;;;;;;6238163;23;20174;-84
2023/03/24 08:10:16;;;;;;;6.40;4.10;;;12.50;99.90;;;;;;6239473;23;20181;-84
2023/03/24 08:12:42;;;;;;;8.57;1.95;;;12.50;99.90;;;;;;6236347;23;20144;-84
2023/03/24 08:15:08;;;;;;;3.33;3.03;;;12.50;99.90;;;;;;6236850;23;20152;-85
2023/03/24 08:17:35;;;;;;;6.55;2.97;;;12.60;99.90;;;;;;6240735;23;20355;-84
2023/03/24 08:20:13;;;;;;;4.75;2.88;;;12.50;99.90;;;;;;6242018;23;20176;-84
2023/03/24 08:22:43;;;;;;;3.92;2.50;;;12.70;99.90;;;;;;6240729;23;20199;-84
2023/03/24 08:25:10;;;;;;;6.83;3.57;;;12.80;99.90;;;;;;6241373;23;20133;-84
2023/03/24 08:27:37;;;;;;;7.38;3.63;;;13.00;99.90;;;;;;6240034;23;20379;-85
2023/03/24 08:30:06;;;;;;;4.40;3.25;;;13.00;99.90;;;;;;6239940;23;20183;-84
2023/03/24 08:32:32;;;;;;;2.53;2.30;;;13.00;99.90;;;;;;6253535;22;20137;-81
2023/03/24 08:34:57;;;;;;;5.47;2.70;;;13.30;99.90;;;;;;6241901;23;20363;-84
2023/03/24 08:37:23;;;;;;;5.00;2.90;;;13.50;99.90;;;;;;6242451;23;21184;-82
2023/03/24 08:39:48;;;;;;;3.67;3.37;;;13.70;99.90;;;;;;6216753;23;21027;-82
2023/03/24 08:42:14;;;;;;;3.27;2.73;;;13.90;99.90;;;;;;6214308;23;20157;-83
2023/03/24 08:44:40;;;;;;;6.73;2.63;;;13.80;99.90;;;;;;6213745;23;20173;-81
2023/03/24 08:47:06;;;;;;;3.33;2.57;;;13.90;99.90;;;;;;6211521;23;20437;-82
2023/03/24 08:49:32;;;;;;;3.13;2.67;;;;;;;;;;6211517;23;20395;-82
2023/03/24 08:51:57;;;;;;;4.70;2.60;;;14.20;99.90;;;;;;6214195;23;20156;-84
2023/03/24 08:54:25;;;;;;;9.30;3.83;;;14.40;99.90;;;;;;6241979;23;20367;-82
2023/03/24 08:56:50;;;;;;;4.13;3.70;;;14.50;99.90;;;;;;6243306;23;20202;-82
2023/03/24 08:59:16;;;;;;;2.53;1.90;;;14.40;99.90;;;;;;6241676;23;20449;-82
2023/03/24 09:01:41;;;;;;;3.50;2.20;;;14.30;99.90;;;;;;6213988;23;20152;-82
2023/03/24 09:04:07;;;;;;;6.10;3.63;;;14.10;99.90;;;;;;6213498;23;20153;-83
2023/03/24 09:06:33;;;;;;;5.10;3.20;;;;;;;;;;6214823;23;20151;-82
2023/03/24 09:08:58;;;;;;;3.00;1.97;;;13.80;99.90;;;;;;6209884;23;20440;-82
2023/03/24 09:11:24;;;;;;;2.20;2.00;;;13.70;99.90;;;;;;6215926;23;21325;-83
2023/03/24 09:13:49;;;;;;;2.60;2.40;;;14.00;99.90;;;;;;6215737;23;20152;-82
2023/03/24 09:16:16;;;;;;;3.93;2.87;;;14.10;99.90;;;;;;6215657;23;20160;-82
2023/03/24 09:18:42;;;;;;;2.90;1.60;;;14.10;99.90;;;;;;6215376;23;20297;-83
2023/03/24 09:21:08;;;;;;;3.60;2.30;;;14.20;99.90;;;;;;6250493;23;20463;-82
2023/03/24 09:23:34;;;;;;;2.70;1.77;;;14.10;99.90;;;;;;6220844;23;20153;-83
2023/03/24 09:26:01;;;;;;;3.03;2.20;;;14.00;99.90;;;;;;6247041;23;20148;-83
2023/03/24 09:28:28;;;;;;;2.20;2.00;;;14.00;99.90;;;;;;6243021;23;20596;-82
2023/03/24 09:31:02;;;;;;;2.40;2.20;;;14.00;99.90;;;;;;6212363;23;20468;-84
2023/03/24 09:33:31;;;;;;;2.60;1.67;;;14.20;99.90;;;;;;6225893;23;20616;-84
2023/03/24 09:35:59;;;;;;;1.77;1.40;;;14.10;99.90;;;;;;6243368;23;20403;-83
2023/03/24 09:38:26;;;;;;;2.50;2.13;;;14.10;99.90;;;;;;6244140;23;20425;-83
2023/03/24 09:40:56;;;;;;;4.10;2.20;;;14.10;99.90;;;;;;6243854;23;20403;-84
2023/03/24 09:43:38;;;;;;;2.37;2.00;;;14.20;99.90;;;;;;6243892;23;20370;-83
2023/03/24 09:46:12;;;;;;;2.00;1.37;;;14.30;99.90;;;;;;6240780;23;20375;-83
2023/03/24 09:48:41;;;;;;;1.43;1.20;;;14.40;99.90;;;;;;6241130;23;20390;-83
2023/03/24 09:51:21;;;;;;;1.30;1.20;;;14.60;99.90;;;;;;6235581;23;20409;-84
2023/03/24 09:54:12;;;;;;;2.43;1.20;;;14.70;99.90;;;;;;6230167;22;20576;-82
2023/03/24 09:56:40;;;;;;;2.80;1.43;;;14.90;99.90;;;;;;6253479;23;20363;-83
2023/03/24 09:59:30;;;;;;;3.03;2.43;;;15.00;99.90;;;;;;6247193;23;21219;-83
2023/03/24 10:01:57;;;;;;;2.97;1.87;;;15.30;99.90;;;;;;6240381;23;20410;-83
2023/03/24 10:04:26;;;;;;;3.13;2.80;;;15.50;99.90;;;;;;6246988;23;20703;-83
2023/03/24 10:07:05;;;;;;;2.40;1.10;;;16.60;99.90;;;;;;6242553;23;20422;-84
2023/03/24 10:09:34;;;;;;;3.20;2.67;;;16.60;99.90;;;;;;6243467;23;20974;-84
2023/03/24 10:12:21;;;;;;;3.10;1.90;;;17.30;99.90;;;;;;6255665;22;20374;-83
2023/03/24 10:15:05;;;;;;;1.23;1.10;;;18.00;99.90;;;;;;6245192;23;20831;-83
2023/03/24 10:17:55;;;;;;;1.90;1.10;;;18.20;99.90;;;;;;6242803;23;20383;-84
2023/03/24 10:20:46;;;;;;;1.30;1.00;;;17.80;99.90;;;;;;6244106;23;20924;-83
2023/03/24 10:23:20;;;;;;;1.50;1.10;;;17.00;99.90;;;;;;6242019;23;20379;-84
2023/03/24 10:25:46;;;;;;;2.33;1.30;;;;;;;;;;6244466;23;20786;-84
2023/03/24 10:28:50;;;;;;;2.10;1.60;;;16.10;99.90;;;;;;6244575;23;20368;-82
2023/03/24 10:31:18;;;;;;;1.10;1.00;;;16.00;99.90;;;;;;6176260;23;20751;-84
2023/03/24 10:33:45;;;;;;;1.60;1.13;;;15.90;99.90;;;;;;6220428;23;20399;-84
2023/03/24 10:36:14;;;;;;;1.47;1.37;;;16.00;99.90;;;;;;6235292;23;20384;-84
2023/03/24 10:38:40;;;;;;;3.53;1.87;;;15.50;99.90;;;;;;6235349;23;20419;-83
2023/03/24 10:41:11;;;;;;;2.27;1.30;;;15.20;99.90;;;;;;6236174;23;20387;-82
2023/03/24 10:43:37;;;;;;;1.70;1.07;;;15.30;99.90;;;;;;6237818;23;20379;-83
2023/03/24 10:46:03;;;;;;;2.23;1.20;;;15.30;99.90;;;;;;6244512;23;20450;-84
2023/03/24 10:48:47;;;;;;;1.90;1.53;;;15.40;99.90;;;;;;6235497;23;21037;-83
2023/03/24 10:51:36;;;;;;;2.27;1.10;;;15.50;99.90;;;;;;6239558;23;20391;-84
2023/03/24 10:54:25;;;;;;;0.70;0.70;;;15.70;99.90;;;;;;6236704;23;20778;-84
2023/03/24 10:57:04;;;;;;;1.20;1.10;;;15.60;99.90;;;;;;6236996;23;20422;-82
2023/03/24 10:59:38;;;;;;;2.60;0.60;;;15.50;99.90;;;;;;6243880;22;20434;-83
2023/03/24 11:02:23;;;;;;;0.70;0.63;;;15.50;99.90;;;;;;6240613;23;20355;-82
2023/03/24 11:04:58;;;;;;;0.93;0.67;;;15.60;99.90;;;;;;6242263;23;20367;-83
2023/03/24 11:07:40;;;;;;;1.33;1.00;;;15.70;99.90;;;;;;6240678;23;20610;-83
2023/03/24 11:10:23;;;;;;;1.23;0.90;;;15.90;99.90;;;;;;6244558;23;20502;-83
2023/03/24 11:12:52;;;;;;;1.10;0.80;;;15.90;99.90;;;;;;6243021;23;20715;-84
2023/03/24 11:15:36;;;;;;;0.83;0.63;;;16.30;99.90;;;;;;6236627;23;20411;-83
2023/03/24 11:18:15;;;;;;;0.80;0.77;;;16.50;99.90;;;;;;6243141;23;20733;-84
2023/03/24 11:20:47;;;;;;;1.93;1.10;;;16.80;99.90;;;;;;6250532;23;20387;-82
2023/03/24 11:23:19;;;;;;;0.60;0.60;;;16.60;99.90;;;;;;6243115;23;20383;-83
2023/03/24 11:25:52;;;;;;;3.10;0.90;;;16.60;99.90;;;;;;6241956;23;20367;-84
2023/03/24 11:28:23;;;;;;;0.97;0.67;;;16.90;99.90;;;;;;6242388;23;20382;-85
2023/03/24 11:30:51;;;;;;;1.60;0.90;;;17.00;99.90;;;;;;6238996;23;20972;-85
2023/03/24 11:33:33;;;;;;;0.70;0.57;;;17.10;99.90;;;;;;6242960;23;20439;-84
2023/03/24 11:36:00;;;;;;;1.00;0.80;;;17.30;99.90;;;;;;6241547;23;20383;-85
2023/03/24 11:38:34;;;;;;;0.97;0.83;;;17.20;99.90;;;;;;6244326;23;20423;-85
2023/03/24 11:41:03;;;;;;;1.53;0.90;;;16.90;99.90;;;;;;6245874;23;21152;-85
2023/03/24 11:43:29;;;;;;;1.23;0.77;;;16.90;99.90;;;;;;6241827;23;20435;-83
2023/03/24 11:46:16;;;;;;;0.60;0.60;;;17.00;99.90;;;;;;6255797;23;20403;-83
2023/03/24 11:48:51;;;;;;;0.80;0.73;;;17.30;99.90;;;;;;6243397;23;20372;-83
2023/03/24 11:51:34;;;;;;;1.63;0.70;;;17.20;99.90;;;;;;6245052;23;20422;-84
2023/03/24 11:54:05;;;;;;;1.53;0.70;;;16.60;99.90;;;;;;6245621;23;20427;-84
2023/03/24 11:56:31;;;;;;;0.60;0.60;;;16.40;99.90;;;;;;6253668;23;20386;-84
2023/03/24 11:59:28;;;;;;;1.40;0.70;;;16.20;99.90;;;;;;6250833;23;20431;-83
2023/03/24 12:02:23;;;;;;;1.40;1.30;;;16.30;99.90;;;;;;6255961;23;20123;-83
2023/03/24 12:04:58;;;;;;;0.70;0.60;;;16.20;99.90;;;;;;6238918;23;20884;-86
2023/03/24 12:07:48;;;;;;;1.10;0.63;;;15.80;99.90;;;;;;6258045;23;20371;-83
2023/03/24 12:10:40;;;;;;;0.73;0.73;;;15.60;99.90;;;;;;6254411;23;20434;-83
2023/03/24 12:13:35;;;;;;;0.60;0.60;;;16.20;99.90;;;;;;6260045;23;20344;-83
2023/03/24 12:16:15;;;;;;;0.70;0.47;;;16.20;99.90;;;;;;6258783;23;20376;-84
2023/03/24 12:19:05;;;;;;;6.03;0.77;;;16.30;99.90;;;;;;6257462;23;20403;-83
2023/03/24 12:21:48;;;;;;;1.67;0.70;;;16.10;99.90;;;;;;6250074;23;20407;-83
2023/03/24 12:24:31;;;;;;;0.50;0.50;;;16.00;99.90;;;;;;6248058;23;20380;-83
2023/03/24 12:26:59;;;;;;;0.70;0.60;;;16.20;99.90;;;;;;6245314;23;20387;-83
2023/03/24 12:29:40;;;;;;;1.00;0.73;;;16.50;99.90;;;;;;6244769;23;20383;-82
2023/03/24 12:32:31;;;;;;;0.70;0.63;;;16.80;99.90;;;;;;6240873;23;20398;-85
2023/03/24 12:35:12;;;;;;;0.60;0.50;;;16.10;99.90;;;;;;6240602;23;20387;-86
2023/03/24 12:37:51;;;;;;;1.60;0.80;;;14.80;99.90;;;;;;6241541;23;20375;-84
2023/03/24 12:40:38;;;;;;;1.20;0.57;;;13.40;99.90;;;;;;6242634;23;21056;-84
2023/03/24 12:43:33;;;;;;;1.55;0.70;;;12.40;99.90;;;;;;6239777;23;20215;-83
2023/03/24 12:46:20;;;;;;;0.75;0.55;;;12.10;99.90;;;;;;6232366;23;20158;-83
2023/03/24 12:49:27;;;;;;;2.45;1.73;;;12.00;99.90;;;;;;6237638;23;20152;-84
2023/03/24 12:52:30;;;;;;;0.55;0.43;;;11.90;99.90;;;;;;6175284;23;20165;-84
2023/03/24 12:55:07;;;;;;;11.80;1.63;;;11.70;99.90;;;;;;6239489;23;20538;-83
2023/03/24 12:57:45;;;;;;;2.75;0.80;;;11.60;99.90;;;;;;6238334;23;20196;-84
2023/03/24 13:00:50;;;;;;;2.45;0.98;;;11.60;99.90;;;;;;6238426;23;20247;-84
2023/03/24 13:03:22;;;;;;;2.78;0.60;;;11.60;99.90;;;;;;6237033;23;20149;-84
2023/03/24 13:05:51;;;;;;;3.83;1.10;;;11.50;99.90;;;;;;6236130;23;20799;-84
2023/03/24 13:08:22;;;;;;;0.88;0.80;;;11.40;99.90;;;;;;6245893;23;20206;-83
2023/03/24 13:10:53;;;;;;;2.40;1.08;;;11.40;99.90;;;;;;6246500;23;20184;-84
2023/03/24 13:13:28;;;;;;;2.55;0.88;;;11.30;99.90;;;;;;6241363;23;20153;-83
2023/03/24 13:15:57;;;;;;;3.25;0.73;;;11.30;99.90;;;;;;6240523;23;20152;-83